YAC weather

Cat Lake Airport
Cat Lake, Ontario, Canada

Public forecast

Using degrees Celsius for public forecast. Weather courtesy of forecast.io.

Closest aviation weather report (METAR) to Cat Lake Airport

Closest report is Pickle Lake Airport, 62.4 nm (115.5 km) ESE. Retrieved 2020/06/01 16:21 UTC (16 minutes ago):

CYPL 011621Z AUTO 09010G15KT 9SM OVC080 13/04 A2988 RMK SLP127 DENSITY ALT 1300FT

Closest aviation forecast (TAF) to Cat Lake Airport

Closest forecast is Pickle Lake Airport, 62.4 nm (115.5 km) ESE. Retrieved 2020/06/01 14:45 UTC (2 hours ago):

TAF CYPL 011330Z 0114/0202 14010G20KT P6SM BKN150 FM011700 15010G20KT P6SM OVC080 RMK FCST BASED ON AUTO OBS NXT FCST BY 012000Z